Time;durP1;ratioP1;P1;durP2;ratioP2;P2;SDS_P1;SDS_P2;PMS_P1;PMS_P2;Temp;Humidity;BMP_temperature;BMP_pressure;BME280_temperature;BME280_humidity;BME280_pressure;Samples;Min_cycle;Max_cycle;Signal;HPM_P1;HPM_P2
2024/04/12 00:00:47;;;;;;;;;;;;;;;23.60;43.03;95640.56;5199753;27;7966;-60
2024/04/12 00:03:17;;;;;;;;;;;;;;;23.54;43.80;95632.22;5172365;27;8585;-60
2024/04/12 00:06:05;;;;;;;;;;;;;;;23.48;43.35;95623.13;5213065;27;7094;-60
2024/04/12 00:08:32;;;;;;;;;;;;;;;23.55;43.39;95639.25;5199306;27;7177;-60
2024/04/12 00:11:07;;;;;;;;;;;;;;;23.55;43.09;95635.75;5181054;27;7089;-60
2024/04/12 00:13:53;;;;;;;;;;;;;;;23.57;43.49;95647.00;5245506;27;7197;-60
2024/04/12 00:16:24;;;;;;;;;;;;;;;23.54;43.32;95640.47;5254185;27;9501;-60
2024/04/12 00:19:12;;;;;;;;;;;;;;;23.54;43.57;95639.69;5246659;27;7376;-60
2024/04/12 00:21:46;;;;;;;;;;;;;;;23.48;43.49;95638.81;5257921;27;7885;-60
2024/04/12 00:24:16;;;;;;;;;;;;;;;23.52;43.27;95644.91;5271560;27;7880;-61
2024/04/12 00:26:45;;;;;;;;;;;;;;;23.52;43.37;95645.66;5259860;27;7340;-61
2024/04/12 00:29:30;;;;;;;;;;;;;;;23.49;43.43;95645.84;5237605;27;8603;-61
2024/04/12 00:32:13;;;;;;;;;;;;;;;23.47;43.42;95643.56;5234270;27;7716;-61
2024/04/12 00:34:47;;;;;;;;;;;;;;;23.47;43.57;95638.06;5354107;26;7373;-61
2024/04/12 00:37:15;;;;;;;;;;;;;;;23.49;43.44;95649.34;5442551;26;7564;-61
2024/04/12 00:39:48;;;;;;;;;;;;;;;23.50;43.43;95658.34;5423911;26;7300;-61
2024/04/12 00:42:33;;;;;;;;;;;;;;;23.48;43.61;95653.31;5438777;26;9793;-61
2024/04/12 00:45:02;;;;;;;;;;;;;;;23.47;43.62;95659.28;5426555;26;10160;-61
2024/04/12 00:47:31;;;;;;;;;;;;;;;23.39;43.47;95647.09;5442823;26;8940;-61
2024/04/12 00:50:02;;;;;;;;;;;;;;;23.49;43.37;95665.06;5424398;26;8265;-61
2024/04/12 00:52:35;;;;;;;;;;;;;;;23.47;43.79;95660.03;5467940;26;8083;-61
2024/04/12 00:55:09;;;;;;;;;;;;;;;23.42;43.34;95652.44;5442712;26;7950;-61
2024/04/12 00:57:41;;;;;;;;;;;;;;;23.43;43.61;95661.41;5458651;26;7478;-62
2024/04/12 01:00:20;;;;;;;;;;;;;;;23.46;43.46;95666.00;5461228;26;8175;-61
2024/04/12 01:03:18;;;;;;;;;;;;;;;23.44;43.59;95660.22;5432103;26;7294;-61
2024/04/12 01:05:46;;;;;;;;;;;;;;;23.45;43.46;95659.72;5339250;26;8803;-61
2024/04/12 01:08:31;;;;;;;;;;;;;;;23.44;43.47;95651.97;5339586;26;7691;-61
2024/04/12 01:11:17;;;;;;;;;;;;;;;23.38;43.90;95649.09;5364584;26;7118;-61
2024/04/12 01:13:56;;;;;;;;;;;;;;;23.39;43.72;95667.09;5352955;26;7366;-61
2024/04/12 01:16:25;;;;;;;;;;;;;;;23.38;43.72;95667.56;5371834;26;7282;-61
2024/04/12 01:18:57;;;;;;;;;;;;;;;23.40;43.96;95667.84;5373419;26;7051;-61
2024/04/12 01:21:26;;;;;;;;;;;;;;;23.38;43.84;95646.34;5342563;26;7396;-61
2024/04/12 01:23:54;;;;;;;;;;;;;;;23.40;43.41;95656.88;5318584;26;7894;-61
2024/04/12 01:26:23;;;;;;;;;;;;;;;23.33;43.51;95644.25;5363397;26;9173;-61
2024/04/12 01:28:54;;;;;;;;;;;;;;;23.37;43.70;95649.56;5348379;26;8017;-61
2024/04/12 01:31:20;;;;;;;;;;;;;;;23.31;43.55;95652.16;5363964;26;7090;-61
2024/04/12 01:33:54;;;;;;;;;;;;;;;23.36;43.40;95656.28;5385657;26;8747;-61
2024/04/12 01:36:39;;;;;;;;;;;;;;;23.31;43.75;95635.69;5346136;26;9046;-61
2024/04/12 01:39:21;;;;;;;;;;;;;;;23.22;43.38;95631.00;5342222;26;7972;-61
2024/04/12 01:41:47;;;;;;;;;;;;;;;23.32;43.52;95637.19;5368948;26;7754;-61
2024/04/12 01:44:24;;;;;;;;;;;;;;;23.31;43.28;95641.19;5429133;26;7361;-61
2024/04/12 01:46:52;;;;;;;;;;;;;;;23.30;43.57;95645.16;5448769;26;9134;-61
2024/04/12 01:49:22;;;;;;;;;;;;;;;23.22;43.73;95628.28;5458411;26;7012;-61
2024/04/12 01:51:55;;;;;;;;;;;;;;;23.30;43.75;95638.88;5418438;26;8013;-61
2024/04/12 01:54:32;;;;;;;;;;;;;;;23.31;43.57;95641.19;5479732;26;8566;-61
2024/04/12 01:57:03;;;;;;;;;;;;;;;23.25;43.82;95630.06;5449738;26;7487;-61
2024/04/12 01:59:31;;;;;;;;;;;;;;;23.24;43.72;95628.56;5467954;26;7244;-61
2024/04/12 02:02:12;;;;;;;;;;;;;;;23.28;43.27;95631.13;5453237;26;7096;-61
2024/04/12 02:05:04;;;;;;;;;;;;;;;23.31;43.77;95640.41;5470231;26;8345;-61
2024/04/12 02:07:39;;;;;;;;;;;;;;;23.29;43.58;95651.09;5458799;26;7470;-61
2024/04/12 02:10:11;;;;;;;;;;;;;;;23.27;43.61;95646.84;5461291;26;10265;-61
2024/04/12 02:12:41;;;;;;;;;;;;;;;23.24;43.44;95658.75;5446801;26;7313;-61
2024/04/12 02:15:27;;;;;;;;;;;;;;;23.17;43.62;95645.38;5442012;26;7195;-61
2024/04/12 02:18:02;;;;;;;;;;;;;;;23.24;43.64;95658.75;5450111;26;7151;-61
2024/04/12 02:20:46;;;;;;;;;;;;;;;23.20;43.78;95658.16;5438988;26;7199;-61
2024/04/12 02:23:23;;;;;;;;;;;;;;;23.25;43.17;95664.97;5393939;26;7123;-61
2024/04/12 02:25:49;;;;;;;;;;;;;;;23.24;43.65;95668.97;5414777;26;7196;-61
2024/04/12 02:28:19;;;;;;;;;;;;;;;23.20;43.68;95663.66;5416874;26;8662;-61
2024/04/12 02:31:08;;;;;;;;;;;;;;;23.19;43.56;95669.59;5411224;26;7685;-61
2024/04/12 02:33:35;;;;;;;;;;;;;;;23.21;43.63;95676.16;5431969;26;6996;-62
2024/04/12 02:36:12;;;;;;;;;;;;;;;23.21;43.39;95678.88;5437933;26;7583;-61
2024/04/12 02:38:42;;;;;;;;;;;;;;;23.14;43.75;95667.50;5436330;26;9298;-61
2024/04/12 02:41:13;;;;;;;;;;;;;;;23.21;43.71;95680.88;5401044;26;8301;-61
2024/04/12 02:44:12;;;;;;;;;;;;;;;23.20;43.69;95682.88;5431633;26;7698;-61
2024/04/12 02:46:55;;;;;;;;;;;;;;;23.15;43.71;95677.25;5455952;26;7996;-61
2024/04/12 02:49:27;;;;;;;;;;;;;;;23.16;43.71;95673.28;5453143;26;7767;-61
2024/04/12 02:51:53;;;;;;;;;;;;;;;23.15;43.36;95678.00;5454381;26;7680;-61
2024/04/12 02:54:27;;;;;;;;;;;;;;;23.19;43.73;95673.09;5432909;26;7348;-61
2024/04/12 02:56:54;;;;;;;;;;;;;;;23.18;43.90;95679.06;5464202;26;7483;-61
2024/04/12 02:59:27;;;;;;;;;;;;;;;23.12;44.00;95670.69;5468819;26;7109;-61
2024/04/12 03:02:00;;;;;;;;;;;;;;;23.09;43.59;95657.91;5456321;26;6983;-61
2024/04/12 03:04:38;;;;;;;;;;;;;;;23.11;43.40;95669.19;5465211;26;7254;-61
2024/04/12 03:07:11;;;;;;;;;;;;;;;23.10;43.72;95670.38;5438256;26;7364;-63
2024/04/12 03:09:42;;;;;;;;;;;;;;;23.13;43.51;95674.97;5456533;26;8953;-61
2024/04/12 03:12:12;;;;;;;;;;;;;;;23.13;43.82;95674.97;5450024;26;7507;-61
2024/04/12 03:14:47;;;;;;;;;;;;;;;23.12;43.43;95678.16;5477343;26;9098;-61
2024/04/12 03:17:25;;;;;;;;;;;;;;;23.06;44.06;95672.53;5451516;26;8021;-61
2024/04/12 03:19:54;;;;;;;;;;;;;;;23.03;44.08;95676.22;5406476;26;7696;-61
2024/04/12 03:22:21;;;;;;;;;;;;;;;23.07;43.67;95671.34;5459070;26;7345;-61
2024/04/12 03:24:47;;;;;;;;;;;;;;;23.12;43.88;95680.91;5450917;26;7875;-61
2024/04/12 03:27:15;;;;;;;;;;;;;;;23.12;43.91;95683.63;5413455;26;7329;-61
2024/04/12 03:29:44;;;;;;;;;;;;;;;23.08;43.96;95689.31;5446388;26;7371;-61
2024/04/12 03:32:12;;;;;;;;;;;;;;;23.04;43.76;95677.75;5448771;26;7661;-61
2024/04/12 03:34:38;;;;;;;;;;;;;;;23.01;43.94;95673.16;5462103;26;7347;-61
2024/04/12 03:37:23;;;;;;;;;;;;;;;23.05;43.91;95684.72;5422685;26;7987;-67
2024/04/12 03:40:00;;;;;;;;;;;;;;;23.04;43.91;95672.25;5383442;26;7014;-65
2024/04/12 03:42:28;;;;;;;;;;;;;;;22.99;44.18;95667.38;5445740;26;9790;-65
2024/04/12 03:44:58;;;;;;;;;;;;;;;23.05;43.89;95679.25;5413034;26;7097;-65
2024/04/12 03:47:27;;;;;;;;;;;;;;;23.07;43.68;95681.53;5399356;26;7809;-65
2024/04/12 03:49:55;;;;;;;;;;;;;;;22.98;43.80;95670.59;5408523;26;7306;-65
2024/04/12 03:52:26;;;;;;;;;;;;;;;23.04;44.03;95676.97;5429704;26;8641;-65
2024/04/12 03:55:08;;;;;;;;;;;;;;;22.98;44.02;95671.38;5409447;26;7044;-65
2024/04/12 03:57:38;;;;;;;;;;;;;;;22.95;43.87;95675.03;5441731;26;7699;-65
2024/04/12 04:00:12;;;;;;;;;;;;;;;22.97;43.68;95672.56;5471471;26;8995;-65
2024/04/12 04:02:48;;;;;;;;;;;;;;;23.01;43.70;95684.13;5417090;26;7013;-65
2024/04/12 04:05:14;;;;;;;;;;;;;;;22.99;44.09;95675.63;5430208;26;7669;-65
2024/04/12 04:07:44;;;;;;;;;;;;;;;22.99;43.69;95683.06;5447348;26;7052;-65
2024/04/12 04:10:15;;;;;;;;;;;;;;;23.01;43.70;95683.41;5419535;26;8271;-65
2024/04/12 04:12:49;;;;;;;;;;;;;;;22.96;43.97;95675.78;5435212;26;6997;-66
2024/04/12 04:15:25;;;;;;;;;;;;;;;23.02;43.44;95685.69;5447282;26;8052;-65
2024/04/12 04:17:53;;;;;;;;;;;;;;;23.01;44.02;95684.13;5445914;26;8639;-64
2024/04/12 04:20:53;;;;;;;;;;;;;;;22.99;43.58;95685.81;5434498;26;9105;-65
2024/04/12 04:23:42;;;;;;;;;;;;;;;22.94;43.71;95684.50;5318073;26;7660;-64
2024/04/12 04:26:11;;;;;;;;;;;;;;;22.96;43.76;95687.53;5305563;26;6942;-65
2024/04/12 04:28:37;;;;;;;;;;;;;;;22.91;43.94;95701.88;5305155;26;8237;-64
2024/04/12 04:31:06;;;;;;;;;;;;;;;22.91;44.29;95701.88;5304837;27;7401;-65
2024/04/12 04:33:49;;;;;;;;;;;;;;;22.96;44.14;95704.00;5329446;26;7058;-65
2024/04/12 04:36:21;;;;;;;;;;;;;;;22.90;44.24;95694.09;5309912;26;8753;-64
2024/04/12 04:38:57;;;;;;;;;;;;;;;22.94;44.23;95702.94;5282900;27;7321;-64
2024/04/12 04:41:43;;;;;;;;;;;;;;;22.96;44.21;95703.22;5309732;26;9021;-64
2024/04/12 04:44:22;;;;;;;;;;;;;;;23.05;43.94;95705.94;5309354;26;6853;-66
2024/04/12 04:46:49;;;;;;;;;;;;;;;23.01;44.02;95686.16;5314994;26;7147;-62
2024/04/12 04:49:40;;;;;;;;;;;;;;;23.06;44.06;95691.75;5310767;26;8961;-63
2024/04/12 04:52:08;;;;;;;;;;;;;;;23.05;43.89;95701.19;5329398;26;7169;-63
2024/04/12 04:54:39;;;;;;;;;;;;;;;23.06;44.38;95701.97;5303680;27;7355;-63
2024/04/12 04:57:06;;;;;;;;;;;;;;;23.03;44.14;95697.41;5284353;27;7216;-63
2024/04/12 04:59:32;;;;;;;;;;;;;;;23.04;44.82;95699.69;5397120;26;7644;-63
2024/04/12 05:02:04;;;;;;;;;;;;;;;23.07;44.57;95709.75;5424130;26;7255;-61
2024/04/12 05:04:32;;;;;;;;;;;;;;;23.05;44.31;95711.44;5423990;26;7737;-61
2024/04/12 05:07:07;;;;;;;;;;;;;;;23.02;44.22;95704.88;5413029;26;9352;-61
2024/04/12 05:09:33;;;;;;;;;;;;;;;23.03;44.48;95702.91;5433008;26;7405;-61
2024/04/12 05:11:59;;;;;;;;;;;;;;;23.00;44.43;95701.06;5416987;26;7319;-61
2024/04/12 05:17:09;;;;;;;;;;;;;;;23.04;44.64;95712.66;5446415;26;8658;-61
2024/04/12 05:19:47;;;;;;;;;;;;;;;23.04;44.40;95696.94;5444810;26;7989;-60
2024/04/12 05:22:20;;;;;;;;;;;;;;;23.06;45.11;95699.22;5403040;26;6953;-60
2024/04/12 05:24:46;;;;;;;;;;;;;;;23.06;44.05;95699.22;5428049;26;7689;-63
2024/04/12 05:27:15;;;;;;;;;;;;;;;23.05;42.39;95700.47;5450165;26;9286;-64
2024/04/12 05:29:41;;;;;;;;;;;;;;;23.03;43.29;95714.63;5435654;26;6886;-65
2024/04/12 05:32:09;;;;;;;;;;;;;;;23.01;44.95;95714.31;5448700;26;7243;-64
2024/04/12 05:34:47;;;;;;;;;;;;;;;23.02;45.67;95704.13;5451896;26;7191;-64
2024/04/12 05:37:15;;;;;;;;;;;;;;;23.23;52.72;95712.13;5445899;26;7746;-64
2024/04/12 05:39:46;;;;;;;;;;;;;;;23.60;53.30;95720.22;5446628;26;7169;-64
2024/04/12 05:42:19;;;;;;;;;;;;;;;23.89;52.48;95712.88;5424596;26;8827;-64
2024/04/12 05:44:52;;;;;;;;;;;;;;;24.05;50.55;95691.75;5411416;26;7281;-67
2024/04/12 05:48:12;;;;;;;;;;;;;;;24.28;48.37;95710.97;5475525;26;7138;-66
2024/04/12 05:50:49;;;;;;;;;;;;;;;24.35;45.38;95694.09;5309441;26;7119;-68
2024/04/12 05:53:30;;;;;;;;;;;;;;;24.44;43.39;95705.03;5299753;26;8012;-66
2024/04/12 05:58:45;;;;;;;;;;;;;;;23.94;42.36;95682.03;5286003;27;7900;-62
2024/04/12 06:01:11;;;;;;;;;;;;;;;23.70;42.75;95699.72;5313694;26;7488;-62
2024/04/12 06:03:42;;;;;;;;;;;;;;;23.41;42.88;95703.09;5309269;26;7386;-62
2024/04/12 06:06:23;;;;;;;;;;;;;;;23.29;43.39;95698.53;5296892;27;7745;-62
2024/04/12 06:09:01;;;;;;;;;;;;;;;23.20;43.76;95704.84;5287088;27;7972;-66
2024/04/12 06:11:37;;;;;;;;;;;;;;;23.18;44.02;95709.25;5322774;26;8778;-71
2024/04/12 06:14:13;;;;;;;;;;;;;;;23.22;44.22;95716.09;5318784;26;9049;-60
2024/04/12 06:16:41;;;;;;;;;;;;;;;23.22;45.77;95713.34;5263914;27;7683;-59
2024/04/12 06:19:07;;;;;;;;;;;;;;;23.25;46.42;95709.66;5279014;27;9085;-60
2024/04/12 06:21:36;;;;;;;;;;;;;;;23.43;54.26;95719.06;5308495;26;7764;-60
2024/04/12 06:24:12;;;;;;;;;;;;;;;23.82;54.29;95726.97;5297146;27;7289;-60
2024/04/12 06:26:47;;;;;;;;;;;;;;;24.07;53.01;95723.03;5318849;26;7633;-60
2024/04/12 06:29:17;;;;;;;;;;;;;;;24.19;51.97;95707.50;5468883;26;7468;-61
2024/04/12 06:31:46;;;;;;;;;;;;;;;24.41;62.14;95722.47;5441751;26;7250;-61
2024/04/12 06:34:17;;;;;;;;;;;;;;;24.70;62.18;95714.25;5450851;26;7064;-61
2024/04/12 06:36:56;;;;;;;;;;;;;;;24.86;46.40;95720.56;5432435;26;9062;-60
2024/04/12 06:39:26;;;;;;;;;;;;;;;24.83;47.69;95705.00;5436176;26;7138;-62
2024/04/12 06:42:08;;;;;;;;;;;;;;;25.00;54.08;95722.53;5433103;26;9232;-62
2024/04/12 06:44:35;;;;;;;;;;;;;;;24.93;45.25;95695.41;5449499;26;7281;-62
2024/04/12 06:47:13;;;;;;;;;;;;;;;24.40;43.67;95690.69;5456914;26;7225;-62
2024/04/12 06:49:44;;;;;;;;;;;;;;;24.03;44.30;95696.94;5421261;26;7113;-62
2024/04/12 06:52:12;;;;;;;;;;;;;;;23.81;44.76;95702.72;5483854;26;7265;-62
2024/04/12 06:54:42;;;;;;;;;;;;;;;23.58;44.73;95682.25;5452444;26;7178;-62
2024/04/12 06:57:25;;;;;;;;;;;;;;;23.55;45.43;95694.19;5446093;26;9046;-61
2024/04/12 06:59:54;;;;;;;;;;;;;;;23.52;45.37;95699.81;5411618;26;7127;-61
2024/04/12 07:02:36;;;;;;;;;;;;;;;23.45;45.37;95695.44;5404128;26;7133;-61
2024/04/12 07:05:05;;;;;;;;;;;;;;;23.46;45.19;95694.22;5437716;26;7422;-61
2024/04/12 07:07:32;;;;;;;;;;;;;;;23.39;44.40;95685.53;5437602;26;7244;-61
2024/04/12 07:10:15;;;;;;;;;;;;;;;23.36;44.49;95683.75;5409293;26;7344;-61
2024/04/12 07:12:55;;;;;;;;;;;;;;;23.34;44.91;95680.72;5403295;26;7646;-61
2024/04/12 07:15:40;;;;;;;;;;;;;;;23.31;44.87;95676.09;5443839;26;7063;-61
2024/04/12 07:18:11;;;;;;;;;;;;;;;23.29;44.89;95675.81;5422744;26;7670;-61
2024/04/12 07:20:44;;;;;;;;;;;;;;;23.31;45.14;95684.34;5394295;26;7295;-61
2024/04/12 07:23:19;;;;;;;;;;;;;;;23.20;45.06;95666.41;5441300;26;6988;-62
2024/04/12 07:25:52;;;;;;;;;;;;;;;23.31;44.89;95673.38;5435891;26;7984;-61
2024/04/12 07:28:18;;;;;;;;;;;;;;;23.27;45.07;95661.78;5442947;26;6994;-61
2024/04/12 07:30:44;;;;;;;;;;;;;;;23.29;45.46;95664.84;5409846;26;7058;-61
2024/04/12 07:33:15;;;;;;;;;;;;;;;23.30;45.29;95669.09;5436679;26;7312;-61
2024/04/12 07:35:48;;;;;;;;;;;;;;;23.34;45.21;95681.44;5405267;26;7408;-61
2024/04/12 07:38:15;;;;;;;;;;;;;;;23.28;45.04;95677.78;5438289;26;7355;-61
2024/04/12 07:40:52;;;;;;;;;;;;;;;23.34;45.03;95686.19;5453123;26;7422;-61
2024/04/12 07:43:41;;;;;;;;;;;;;;;23.30;44.90;95682.81;5408630;26;7076;-61
2024/04/12 07:46:17;;;;;;;;;;;;;;;23.35;44.87;95687.69;5419348;26;7083;-61
2024/04/12 07:48:48;;;;;;;;;;;;;;;23.36;44.87;95697.47;5448519;26;7146;-61
2024/04/12 07:51:21;;;;;;;;;;;;;;;23.38;44.63;95706.00;5422688;26;7036;-61
2024/04/12 07:54:28;;;;;;;;;;;;;;;23.40;44.41;95703.56;5442758;26;7203;-61
2024/04/12 07:57:07;;;;;;;;;;;;;;;23.41;44.77;95707.81;5319825;26;7158;-61
2024/04/12 08:00:09;;;;;;;;;;;;;;;23.41;44.58;95708.56;5314885;26;7404;-61
2024/04/12 08:02:36;;;;;;;;;;;;;;;23.38;44.55;95698.50;5261315;27;7023;-61
2024/04/12 08:05:14;;;;;;;;;;;;;;;23.46;44.58;95710.69;5269766;27;7961;-61
2024/04/12 08:08:30;;;;;;;;;;;;;;;23.53;44.99;95710.31;5235971;27;7302;-61
2024/04/12 08:11:11;;;;;;;;;;;;;;;23.57;44.65;95713.69;5241967;27;7992;-62
2024/04/12 08:13:50;;;;;;;;;;;;;;;23.66;44.41;95719.13;5265668;27;7304;-61
2024/04/12 08:16:23;;;;;;;;;;;;;;;23.67;44.37;95708.91;5268421;27;7081;-61
2024/04/12 08:18:59;;;;;;;;;;;;;;;23.75;44.39;95715.59;5231429;27;7467;-61
2024/04/12 08:21:37;;;;;;;;;;;;;;;23.89;44.17;95712.13;5266129;27;8550;-64
2024/04/12 08:24:22;;;;;;;;;;;;;;;23.97;44.15;95702.28;5258467;27;9159;-62
2024/04/12 08:26:52;;;;;;;;;;;;;;;24.17;43.49;95721.72;5281146;27;7074;-62
2024/04/12 08:29:23;;;;;;;;;;;;;;;24.25;43.24;95706.38;5294632;27;8729;-62
2024/04/12 08:32:00;;;;;;;;;;;;;;;24.37;42.96;95713.63;5301654;26;7090;-61
2024/04/12 08:34:31;;;;;;;;;;;;;;;24.48;42.97;95718.59;5320157;26;7296;-61
2024/04/12 08:37:02;;;;;;;;;;;;;;;24.50;42.25;95711.38;5306338;26;6994;-60
2024/04/12 08:39:42;;;;;;;;;;;;;;;24.59;42.17;95713.28;5424453;26;6977;-61
2024/04/12 08:42:16;;;;;;;;;;;;;;;24.66;42.26;95710.91;5430763;26;7208;-60
2024/04/12 08:44:47;;;;;;;;;;;;;;;24.76;42.03;95710.88;5432533;26;7648;-61
2024/04/12 08:50:13;;;;;;;;;;;;;;;24.79;41.80;95699.69;5425731;26;7204;-60
2024/04/12 08:52:52;;;;;;;;;;;;;;;24.87;41.40;95703.56;5407430;26;7079;-60
2024/04/12 08:55:30;;;;;;;;;;;;;;;24.84;41.66;95690.75;5438575;26;7712;-60
2024/04/12 08:58:01;;;;;;;;;;;;;;;24.91;41.62;95697.88;5412634;26;7528;-60
2024/04/12 09:00:39;;;;;;;;;;;;;;;24.95;41.67;95699.19;5426462;26;7418;-60
2024/04/12 09:03:30;;;;;;;;;;;;;;;24.97;41.41;95693.22;5472714;26;7126;-60
2024/04/12 09:06:00;;;;;;;;;;;;;;;24.98;41.75;95692.75;5424856;26;7078;-60
2024/04/12 09:08:51;;;;;;;;;;;;;;;24.97;41.43;95676.72;5433477;26;6973;-60
2024/04/12 09:11:25;;;;;;;;;;;;;;;24.99;41.26;95690.75;5411726;26;7768;-60
2024/04/12 09:13:53;;;;;;;;;;;;;;;24.99;41.30;95677.00;5437734;26;7039;-60
2024/04/12 09:16:23;;;;;;;;;;;;;;;25.03;41.27;95688.56;5416481;26;7204;-60
2024/04/12 09:18:52;;;;;;;;;;;;;;;25.07;41.53;95692.66;5415548;26;7119;-61
2024/04/12 09:21:36;;;;;;;;;;;;;;;25.05;41.25;95686.09;5443824;26;7147;-61
2024/04/12 09:24:09;;;;;;;;;;;;;;;25.08;41.26;95693.41;5439075;26;7537;-61
2024/04/12 09:26:55;;;;;;;;;;;;;;;25.08;41.17;95691.41;5438558;26;7424;-60
2024/04/12 09:29:27;;;;;;;;;;;;;;;25.04;41.16;95682.59;5425068;26;7387;-60
2024/04/12 09:34:55;;;;;;;;;;;;;;;25.06;41.42;95696.63;5451402;26;7320;-60
2024/04/12 09:37:30;;;;;;;;;;;;;;;25.09;40.89;95697.69;5412566;26;7109;-60
2024/04/12 09:40:04;;;;;;;;;;;;;;;25.11;41.07;95700.72;5431196;26;8157;-60
2024/04/12 09:45:45;;;;;;;;;;;;;;;25.12;41.05;95700.22;5443067;26;6969;-61
2024/04/12 10:39:49;;;;;;;;;;;;;;;25.07;41.26;95672.63;5238714;27;7036;-64
2024/04/12 10:42:25;;;;;;;;;;;;;;;25.00;41.08;95664.75;5207491;27;7064;-64
2024/04/12 10:45:15;;;;;;;;;;;;;;;25.00;41.26;95667.50;5219790;27;8642;-64
2024/04/12 10:47:58;;;;;;;;;;;;;;;24.96;41.37;95664.19;5310746;26;7283;-63
2024/04/12 10:50:29;;;;;;;;;;;;;;;24.85;41.29;95651.00;5323682;26;9549;-62
2024/04/12 10:53:07;;;;;;;;;;;;;;;24.86;41.60;95649.00;5288656;27;7942;-64
2024/04/12 10:55:35;;;;;;;;;;;;;;;24.78;41.39;95643.13;5293859;26;7973;-65
2024/04/12 10:58:05;;;;;;;;;;;;;;;24.79;41.27;95643.88;5308007;26;7099;-65
2024/04/12 11:01:05;;;;;;;;;;;;;;;24.76;41.55;95639.31;5306150;27;7937;-65
2024/04/12 11:03:56;;;;;;;;;;;;;;;24.75;41.75;95646.06;5214345;27;7544;-63
2024/04/12 11:06:32;;;;;;;;;;;;;;;24.69;41.94;95638.44;5239526;27;7330;-61
2024/04/12 11:09:06;;;;;;;;;;;;;;;24.68;41.82;95634.16;5231386;27;7636;-61
2024/04/12 11:11:43;;;;;;;;;;;;;;;24.62;41.79;95627.81;5209994;27;7699;-61
2024/04/12 11:14:27;;;;;;;;;;;;;;;24.58;41.28;95619.00;5225379;27;7412;-62
2024/04/12 11:31:14;;;;;;;;;;;;;;;24.89;40.84;95626.03;5278858;27;9408;-61
2024/04/12 11:34:10;;;;;;;;;;;;;;;25.00;41.05;95628.97;5295544;27;7149;-61
2024/04/12 11:36:46;;;;;;;;;;;;;;;25.09;40.71;95628.84;5236588;27;7077;-63
2024/04/12 11:39:25;;;;;;;;;;;;;;;25.14;40.67;95630.94;5248330;26;7128;-61
2024/04/12 11:41:55;;;;;;;;;;;;;;;25.15;40.57;95626.94;5342820;26;7194;-61
2024/04/12 11:44:25;;;;;;;;;;;;;;;25.26;40.41;95638.13;5310891;26;9745;-62
2024/04/12 11:47:03;;;;;;;;;;;;;;;25.37;40.24;95643.78;5340209;26;7697;-62
2024/04/12 11:49:46;;;;;;;;;;;;;;;25.42;40.26;95632.13;5339439;26;7942;-61
2024/04/12 11:52:45;;;;;;;;;;;;;;;25.45;40.31;95614.63;5336322;26;7094;-61
2024/04/12 11:55:34;;;;;;;;;;;;;;;25.49;40.10;95623.44;5333457;26;7334;-61
2024/04/12 11:58:28;;;;;;;;;;;;;;;25.52;40.05;95624.47;5325941;26;7505;-61
2024/04/12 12:01:18;;;;;;;;;;;;;;;25.54;39.84;95620.00;5329478;26;7427;-61
2024/04/12 12:04:08;;;;;;;;;;;;;;;25.54;39.68;95622.75;5342407;26;8915;-61
2024/04/12 12:06:37;;;;;;;;;;;;;;;25.42;40.01;95605.31;5331122;26;9510;-61
2024/04/12 12:09:14;;;;;;;;;;;;;;;25.50;39.95;95613.94;5340328;26;6977;-61
2024/04/12 12:11:43;;;;;;;;;;;;;;;25.51;39.80;95618.22;5340798;26;7517;-61
2024/04/12 12:14:13;;;;;;;;;;;;;;;25.48;39.94;95608.16;5425340;26;7174;-61
2024/04/12 12:16:49;;;;;;;;;;;;;;;25.45;39.84;95606.34;5447447;26;7362;-61
2024/04/12 12:19:50;;;;;;;;;;;;;;;25.48;39.88;95615.66;5445899;26;6985;-61
2024/04/12 12:22:18;;;;;;;;;;;;;;;25.45;39.98;95620.13;5436576;26;7438;-61
2024/04/12 12:24:45;;;;;;;;;;;;;;;25.43;40.08;95619.84;5448175;26;7473;-61
2024/04/12 12:27:11;;;;;;;;;;;;;;;25.34;40.25;95603.41;5417514;26;7397;-61
2024/04/12 12:29:42;;;;;;;;;;;;;;;25.35;39.90;95618.72;5424903;26;7502;-61
2024/04/12 12:32:19;;;;;;;;;;;;;;;25.33;40.39;95618.44;5404474;26;7226;-60
2024/04/12 12:34:48;;;;;;;;;;;;;;;25.30;40.19;95619.41;5406868;26;7138;-61
2024/04/12 12:37:18;;;;;;;;;;;;;;;25.27;40.55;95623.84;5444883;26;7191;-62
2024/04/12 12:40:21;;;;;;;;;;;;;;;25.22;40.37;95621.03;5412524;26;9087;-61
2024/04/12 12:42:57;;;;;;;;;;;;;;;25.15;40.34;95618.69;5364729;26;7118;-61
2024/04/12 12:45:24;;;;;;;;;;;;;;;25.14;40.49;95625.44;5373106;26;8047;-62
2024/04/12 12:47:53;;;;;;;;;;;;;;;25.08;40.77;95619.84;5374534;26;7126;-62
2024/04/12 12:50:33;;;;;;;;;;;;;;;25.15;40.57;95619.44;5351565;26;7084;-62
2024/04/12 12:52:59;;;;;;;;;;;;;;;25.21;40.48;95614.75;5350050;26;7036;-61
2024/04/12 12:55:33;;;;;;;;;;;;;;;25.29;40.27;95601.38;5315314;26;7247;-61
2024/04/12 12:58:11;;;;;;;;;;;;;;;25.40;40.55;95609.78;5371790;26;7330;-62
2024/04/12 13:00:44;;;;;;;;;;;;;;;25.54;40.43;95602.72;5358827;26;7137;-61
2024/04/12 13:03:12;;;;;;;;;;;;;;;25.60;40.08;95601.53;5369825;26;7720;-62
2024/04/12 13:05:45;;;;;;;;;;;;;;;25.63;40.19;95586.06;5365184;26;7804;-61
2024/04/12 13:09:00;;;;;;;;;;;;;;;25.77;39.89;95594.28;5371955;26;9425;-62
2024/04/12 13:11:26;;;;;;;;;;;;;;;25.82;39.69;95595.53;5232917;27;7052;-61
2024/04/12 13:13:52;;;;;;;;;;;;;;;25.85;39.66;95584.34;5234676;27;8034;-61
2024/04/12 13:16:28;;;;;;;;;;;;;;;25.85;39.34;95570.56;5228568;27;7841;-61
2024/04/12 13:19:00;;;;;;;;;;;;;;;25.93;39.47;95585.41;5271701;26;7068;-62
2024/04/12 13:21:49;;;;;;;;;;;;;;;25.93;39.42;95573.63;5304062;26;7501;-61
2024/04/12 13:24:30;;;;;;;;;;;;;;;26.03;39.62;95580.53;5309605;26;8012;-61
2024/04/12 13:26:59;;;;;;;;;;;;;;;26.01;39.78;95569.22;5319130;26;7252;-61
2024/04/12 13:29:30;;;;;;;;;;;;;;;26.05;39.55;95567.00;5316542;26;7080;-61
2024/04/12 13:32:00;;;;;;;;;;;;;;;26.06;39.59;95561.00;5306592;26;7364;-61
2024/04/12 13:34:37;;;;;;;;;;;;;;;26.13;39.50;95559.84;5299519;26;7632;-62
2024/04/12 13:37:14;;;;;;;;;;;;;;;26.13;39.50;95554.31;5311563;26;7372;-61
2024/04/12 13:39:40;;;;;;;;;;;;;;;26.22;39.62;95572.72;5301860;26;7670;-61
2024/04/12 13:42:13;;;;;;;;;;;;;;;26.24;39.44;95562.72;5317578;26;7335;-62
2024/04/12 13:50:54;;;;;;;;;;;;;;;26.29;39.32;95555.72;5436444;26;7503;-61
2024/04/12 13:53:35;;;;;;;;;;;;;;;26.31;38.92;95556.00;5438337;26;7129;-61
2024/04/12 13:56:20;;;;;;;;;;;;;;;26.35;38.86;95551.03;5434243;26;7466;-61
2024/04/12 13:59:14;;;;;;;;;;;;;;;26.37;38.90;95543.00;5416281;26;7079;-61
2024/04/12 14:01:51;;;;;;;;;;;;;;;26.32;39.04;95536.19;5313806;26;7877;-61
2024/04/12 14:04:20;;;;;;;;;;;;;;;26.35;39.27;95538.00;5365941;26;6943;-61
2024/04/12 14:06:47;;;;;;;;;;;;;;;26.37;39.53;95527.22;5361076;26;7399;-61
2024/04/12 14:09:21;;;;;;;;;;;;;;;26.40;39.34;95525.50;5360660;26;9603;-61
2024/04/12 14:11:52;;;;;;;;;;;;;;;26.42;39.06;95528.50;5351498;26;7782;-61
2024/04/12 14:14:20;;;;;;;;;;;;;;;26.45;39.30;95524.75;5345119;26;7365;-61
2024/04/12 14:16:52;;;;;;;;;;;;;;;26.51;39.04;95528.34;5363379;26;9456;-61
2024/04/12 14:19:26;;;;;;;;;;;;;;;26.52;39.04;95518.81;5339636;26;7469;-61
2024/04/12 14:21:55;;;;;;;;;;;;;;;26.54;39.07;95514.31;5376229;26;7084;-61
2024/04/12 14:27:09;;;;;;;;;;;;;;;26.57;39.23;95510.59;5390007;26;7520;-61
2024/04/12 14:29:36;;;;;;;;;;;;;;;26.55;38.83;95502.03;5376536;26;6886;-61
2024/04/12 14:32:05;;;;;;;;;;;;;;;26.54;38.85;95506.03;5376186;26;9035;-61
2024/04/12 14:34:47;;;;;;;;;;;;;;;26.58;39.24;95506.56;5375581;26;7012;-61
2024/04/12 14:37:46;;;;;;;;;;;;;;;26.57;39.43;95501.53;5362437;26;7023;-61
2024/04/12 14:40:19;;;;;;;;;;;;;;;26.53;38.73;95501.00;5406913;26;7065;-61
2024/04/12 14:42:53;;;;;;;;;;;;;;;26.48;39.41;95496.22;5397271;26;8036;-63
2024/04/12 14:45:20;;;;;;;;;;;;;;;26.44;38.81;95493.69;5383655;26;7624;-61
2024/04/12 14:47:47;;;;;;;;;;;;;;;26.35;38.56;95484.81;5426330;26;7050;-61
2024/04/12 14:50:13;;;;;;;;;;;;;;;26.32;38.42;95489.31;5425878;26;7954;-62
2024/04/12 14:52:43;;;;;;;;;;;;;;;26.30;38.92;95488.28;5400679;26;7202;-61
2024/04/12 14:55:15;;;;;;;;;;;;;;;26.27;39.07;95483.75;5373784;26;7389;-61
2024/04/12 14:57:50;;;;;;;;;;;;;;;26.13;39.26;95466.84;5376122;26;7677;-64
2024/04/12 15:00:31;;;;;;;;;;;;;;;26.10;39.24;95472.56;5378474;26;7045;-64
2024/04/12 15:48:51;;;;;;;;;;;;;;;24.94;41.86;95455.50;5432913;26;7807;-60
2024/04/12 15:51:17;;;;;;;;;;;;;;;24.86;42.00;95448.88;5424709;26;7084;-59
2024/04/12 15:53:48;;;;;;;;;;;;;;;24.82;41.67;95444.81;5418186;26;7055;-60